Time;durP1;ratioP1;P1;durP2;ratioP2;P2;SDS_P1;SDS_P2;PMS_P1;PMS_P2;Temp;Humidity;BMP_temperature;BMP_pressure;BME280_temperature;BME280_humidity;BME280_pressure;Samples;Min_cycle;Max_cycle;Signal;HPM_P1;HPM_P2
2022/02/03 00:01:10;;;;;;;10.63;6.00;;;;;;;-1.48;96.55;99395.66;1715689;82;21048;-65
2022/02/03 00:03:48;;;;;;;10.65;6.33;;;;;;;-1.44;96.54;99392.22;1723067;82;21139;-65
2022/02/03 00:06:09;;;;;;;8.20;5.47;;;;;;;-1.42;96.56;99387.95;1697634;83;21054;-64
2022/02/03 00:11:39;;;;;;;10.93;6.00;;;;;;;-1.39;96.52;99401.59;1702828;83;21012;-64
2022/02/03 00:22:01;;;;;;;9.68;5.53;;;;;;;-1.36;96.50;99401.57;1713791;83;21514;-65
2022/02/03 00:22:34;;;;;;;10.60;5.95;;;;;;;-1.35;96.42;99407.54;1712014;83;20970;-64
2022/02/03 00:27:55;;;;;;;10.18;5.35;;;;;;;-1.30;96.59;99422.47;1686038;83;21081;-64
2022/02/03 00:30:17;;;;;;;8.75;4.87;;;;;;;-1.28;96.62;99431.44;1683814;83;21476;-64
2022/02/03 00:33:07;;;;;;;9.10;5.42;;;;;;;-1.28;96.60;99434.84;1709746;82;20897;-64
2022/02/03 00:35:31;;;;;;;9.18;6.00;;;;;;;-1.28;96.59;99432.28;1684602;85;20961;-65
2022/02/03 00:51:10;;;;;;;8.20;4.70;;;;;;;-1.25;96.56;99454.48;1706739;82;21342;-65
2022/02/03 00:53:38;;;;;;;9.83;5.50;;;;;;;-1.24;96.60;99458.73;1713069;83;21463;-65
2022/02/03 00:56:17;;;;;;;9.73;4.78;;;;;;;-1.27;96.61;99457.03;1728388;82;21132;-65
2022/02/03 00:59:11;;;;;;;6.92;4.40;;;;;;;-1.24;96.69;99449.33;1699272;83;21095;-65
2022/02/03 01:01:41;;;;;;;7.37;4.15;;;;;;;-1.24;96.64;99458.73;1685580;84;21527;-65
2022/02/03 01:04:11;;;;;;;7.65;4.28;;;;;;;-1.29;96.45;99458.73;1687107;83;20947;-65
2022/02/03 01:06:49;;;;;;;6.17;3.83;;;;;;;-1.29;96.54;99463.86;1698838;83;21472;-65
2022/02/03 01:09:18;;;;;;;;;;;;;;;-1.29;96.67;99461.30;1698943;83;21590;-65
2022/02/03 01:12:01;;;;;;;7.22;3.72;;;;;;;-1.31;96.67;99468.16;1710466;82;20189;-65
2022/02/03 01:14:27;;;;;;;8.55;4.00;;;;;;;-1.29;96.78;99468.98;1714441;82;21007;-65
2022/02/03 01:17:19;;;;;;;5.65;3.75;;;;;;;-1.28;96.89;99473.27;1652487;86;21073;-65
2022/02/03 01:44:28;;;;;;;5.47;3.20;;;;;;;-1.32;96.92;99466.44;1628046;87;21076;-64
2022/02/03 01:47:03;;;;;;;3.67;2.40;;;;;;;-1.35;96.84;99463.89;1682459;84;21265;-64
2022/02/03 01:52:01;;;;;;;3.92;2.20;;;;;;;-1.36;96.87;99459.63;1684251;84;21037;-64
2022/02/03 01:54:29;;;;;;;4.33;2.42;;;;;;;-1.39;96.83;99455.80;1612616;86;21036;-64
2022/02/03 01:57:16;;;;;;;3.37;2.30;;;;;;;-1.40;96.86;99460.48;1683863;84;20981;-64
2022/02/03 01:59:48;;;;;;;3.87;2.30;;;;;;;-1.40;96.90;99456.64;1665432;84;23348;-64
2022/02/03 02:02:18;;;;;;;4.40;2.40;;;;;;;-1.38;97.03;99462.63;1657371;86;21437;-64
2022/02/03 02:05:06;;;;;;;6.70;3.42;;;;;;;-1.38;97.05;99471.58;1605332;89;21021;-64
2022/02/03 02:07:57;;;;;;;2.80;2.50;;;;;;;-1.38;96.95;99470.30;1610912;88;21037;-64
2022/02/03 02:11:16;;;;;;;4.35;2.40;;;;;;;-1.39;96.94;99477.58;1635789;87;21610;-64
2022/02/03 02:14:09;;;;;;;3.80;2.52;;;;;;;-1.38;97.04;99477.55;1681280;84;21112;-63
2022/02/03 02:16:57;;;;;;;3.52;2.80;;;;;;;-1.38;97.01;99479.27;1671617;84;22268;-64
2022/02/03 02:19:39;;;;;;;4.35;2.55;;;;;;;-1.36;97.11;99478.84;1674199;83;21044;-64
2022/02/03 02:40:05;;;;;;;4.67;2.80;;;;;;;-1.20;97.32;99463.85;1732653;82;21557;-65
2022/02/03 02:43:20;;;;;;;6.00;3.08;;;;;;;-1.18;97.32;99467.23;1728092;82;20973;-64
2022/02/03 02:45:55;;;;;;;4.95;2.20;;;;;;;-1.17;97.33;99478.36;1674543;85;21206;-63
2022/02/03 02:48:50;;;;;;;4.62;2.90;;;;;;;-1.21;97.15;99480.06;1668877;85;21072;-64
2022/02/03 02:51:26;;;;;;;4.35;2.92;;;;;;;-1.22;97.12;99488.61;1642661;86;21025;-63
2022/02/03 03:33:24;;;;;;;4.20;2.42;;;;;;;-1.56;96.42;99463.97;1674239;83;20962;-63
2022/02/03 03:38:18;;;;;;;5.70;2.35;;;;;;;-1.88;96.12;99452.06;1684928;84;21004;-64
2022/02/03 03:40:55;;;;;;;4.67;2.33;;;;;;;-2.00;96.12;99458.05;1684986;85;21085;-63
2022/02/03 03:43:41;;;;;;;3.00;1.92;;;;;;;-2.06;96.43;99453.78;1689639;84;21013;-64
2022/02/03 03:46:21;;;;;;;4.65;2.25;;;;;;;-2.08;96.59;99461.88;1687527;84;21632;-64
2022/02/03 03:49:08;;;;;;;4.78;2.87;;;;;;;-2.10;96.62;99472.56;1689771;84;21033;-64
2022/02/03 03:51:56;;;;;;;4.60;2.50;;;;;;;-2.05;96.92;99475.95;1688411;84;21608;-64
2022/02/03 03:54:34;;;;;;;3.67;2.37;;;;;;;-2.01;96.97;99479.81;1685914;84;21108;-64
2022/02/03 03:57:14;;;;;;;3.35;2.17;;;;;;;-1.98;97.01;99487.48;1692946;84;21136;-63
2022/02/03 04:40:41;;;;;;;3.77;1.77;;;;;;;-1.64;97.03;99492.98;1689572;83;20949;-65
2022/02/03 04:44:07;;;;;;;2.75;1.85;;;;;;;-1.65;97.00;99493.84;1661488;85;21017;-64
2022/02/03 05:05:06;;;;;;;2.95;1.70;;;;;;;-1.62;97.15;99493.00;1650852;85;21039;-64
2022/02/03 05:10:04;;;;;;;5.20;2.33;;;;;;;-1.55;97.21;99486.14;1606135;87;21062;-64
2022/02/03 05:12:55;;;;;;;4.05;2.20;;;;;;;-1.55;97.14;99484.86;1639871;86;21092;-64
2022/02/03 05:33:51;;;;;;;3.20;2.20;;;;;;;-1.52;97.00;99483.58;1656542;84;21051;-64
2022/02/03 05:44:57;;;;;;;5.62;3.50;;;;;;;-1.39;97.45;99484.82;1674226;85;21599;-64
2022/02/03 05:47:37;;;;;;;4.37;2.65;;;;;;;-1.35;97.45;99479.25;1679003;85;21053;-64
2022/02/03 05:50:07;;;;;;;9.43;3.52;;;;;;;-1.34;97.33;99480.98;1679803;85;21645;-63
2022/02/03 05:55:21;;;;;;;5.97;3.67;;;;;;;-1.27;97.35;99480.09;1680483;85;21088;-65
2022/02/03 06:03:18;;;;;;;8.83;3.75;;;;;;;-1.19;97.42;99477.07;1708939;83;21815;-63
2022/02/03 06:08:35;;;;;;;8.73;4.53;;;;;;;-1.14;97.46;99483.03;1676549;83;21530;-64
2022/02/03 06:13:53;;;;;;;7.70;4.60;;;;;;;-1.10;97.45;99486.86;1678403;85;21611;-65
2022/02/03 06:21:51;;;;;;;6.83;3.62;;;;;;;-1.07;97.40;99481.72;1675374;85;21023;-65
2022/02/03 06:24:30;;;;;;;8.05;3.77;;;;;;;-1.03;97.47;99486.00;1678809;85;21082;-64
2022/02/03 06:29:34;;;;;;;9.90;4.60;;;;;;;-1.03;97.48;99489.41;1680093;84;21280;-64
2022/02/03 06:31:58;;;;;;;10.20;5.28;;;;;;;-1.02;97.43;99492.81;1679960;85;21099;-65
2022/02/03 06:34:25;;;;;;;6.45;4.92;;;;;;;-1.03;97.43;99502.22;1680357;85;21118;-64
2022/02/03 06:36:54;;;;;;;8.80;5.73;;;;;;;-1.00;97.49;99498.80;1676968;85;21654;-63
2022/02/03 06:39:25;;;;;;;8.65;6.08;;;;;;;-0.97;97.60;99497.06;1683165;83;22180;-65
2022/02/03 06:41:57;;;;;;;8.43;5.70;;;;;;;-0.92;97.67;99504.74;1705800;82;21527;-65
2022/02/03 06:44:32;;;;;;;9.70;5.33;;;;;;;-0.89;97.66;99499.59;1714234;83;20983;-64
2022/02/03 06:47:00;;;;;;;7.80;5.55;;;;;;;-0.85;97.68;99506.41;1713309;82;20913;-65
2022/02/03 06:49:40;;;;;;;7.55;4.92;;;;;;;-0.85;97.64;99501.27;1710627;82;21090;-64
2022/02/03 06:52:04;;;;;;;8.95;4.33;;;;;;;-0.83;97.65;99502.12;1713538;82;20912;-65
2022/02/03 06:54:42;;;;;;;9.00;4.40;;;;;;;-0.82;97.56;99506.38;1712059;82;21637;-64
2022/02/03 06:57:03;;;;;;;7.50;4.47;;;;;;;-0.80;97.62;99502.11;1700981;83;21015;-65
2022/02/03 06:59:38;;;;;;;7.05;4.30;;;;;;;-0.77;97.65;99498.69;1710893;83;21029;-65
2022/02/03 07:01:56;;;;;;;9.05;4.60;;;;;;;-0.78;97.60;99500.40;1706822;82;21509;-65
2022/02/03 07:04:26;;;;;;;8.38;4.20;;;;;;;-0.75;97.74;99494.41;1698759;83;21059;-64
2022/02/03 07:06:51;;;;;;;7.78;4.12;;;;;;;-0.73;97.78;99487.13;1697686;83;21710;-63
2022/02/03 07:09:18;;;;;;;6.90;4.03;;;;;;;-0.73;97.66;99487.54;1698376;82;21000;-63
2022/02/03 07:11:47;;;;;;;10.13;4.65;;;;;;;-0.72;97.71;99487.55;1700334;82;21004;-64
2022/02/03 07:14:14;;;;;;;14.65;6.30;;;;;;;-0.66;97.90;99479.41;1703188;83;21055;-64
2022/02/03 07:16:49;;;;;;;9.13;4.30;;;;;;;-0.60;97.91;99478.08;1697025;82;21055;-64
2022/02/03 07:19:16;;;;;;;8.43;4.80;;;;;;;-0.55;97.68;99469.94;1702285;83;21113;-64
2022/02/03 07:21:46;;;;;;;10.70;5.45;;;;;;;-0.50;97.49;99472.89;1655890;85;20938;-66
2022/02/03 07:24:14;;;;;;;9.30;5.45;;;;;;;-0.44;97.47;99474.56;1670174;85;21602;-64
2022/02/03 07:26:41;;;;;;;9.93;5.78;;;;;;;-0.36;97.53;99467.67;1668556;85;21043;-64
2022/02/03 07:29:08;;;;;;;13.80;4.77;;;;;;;-0.31;97.36;99467.61;1700898;83;21031;-64
2022/02/03 07:31:35;;;;;;;15.68;5.80;;;;;;;-0.28;97.26;99471.03;1700802;83;22198;-64
2022/02/03 07:34:03;;;;;;;8.67;5.10;;;;;;;-0.21;97.33;99470.98;1702319;83;20976;-64
2022/02/03 07:36:31;;;;;;;10.98;6.00;;;;;;;-0.14;97.31;99470.05;1700507;82;21089;-65
2022/02/03 07:38:59;;;;;;;;;;;;;;;-0.11;97.27;99470.02;1703901;83;22664;-64
2022/02/03 07:41:26;;;;;;;12.18;5.47;;;;;;;-0.05;97.32;99475.13;1692254;83;20201;-65
2022/02/03 07:43:53;;;;;;;14.15;6.70;;;;;;;0.00;97.42;99475.95;1665733;85;21093;-64
2022/02/03 07:46:19;;;;;;;11.30;5.93;;;;;;;0.04;97.37;99471.63;1673891;85;21012;-64
2022/02/03 07:48:49;;;;;;;10.25;5.25;;;;;;;0.13;97.45;99476.23;1698936;83;20975;-63
2022/02/03 07:51:16;;;;;;;10.95;6.15;;;;;;;0.19;97.49;99482.59;1660038;84;21099;-64
2022/02/03 07:53:43;;;;;;;12.33;6.62;;;;;;;0.29;97.45;99478.69;1701629;83;21024;-64
2022/02/03 07:56:11;;;;;;;9.98;6.28;;;;;;;0.36;97.31;99471.32;1704140;82;21116;-64
2022/02/03 07:58:38;;;;;;;25.23;13.98;;;;;;;0.45;97.14;99477.67;1699551;83;20957;-64
2022/02/03 08:01:05;;;;;;;27.07;17.15;;;;;;;0.53;97.11;99471.99;1700341;83;21091;-65
2022/02/03 08:03:33;;;;;;;17.07;9.30;;;;;;;0.60;97.12;99468.50;1700379;83;21537;-65
2022/02/03 08:06:05;;;;;;;15.30;8.88;;;;;;;0.69;96.99;99466.70;1695822;83;21607;-65
2022/02/03 08:08:36;;;;;;;12.75;6.10;;;;;;;0.82;97.20;99471.69;1684409;83;21637;-65
2022/02/03 08:11:07;;;;;;;10.23;4.60;;;;;;;0.95;97.19;99472.38;1680192;83;21454;-65
2022/02/03 08:13:37;;;;;;;15.05;6.05;;;;;;;1.04;96.92;99472.28;1696997;83;21032;-65
2022/02/03 08:16:11;;;;;;;15.65;7.95;;;;;;;1.13;96.81;99475.61;1692536;83;21097;-65
2022/02/03 08:18:33;;;;;;;22.22;11.57;;;;;;;1.22;96.82;99475.48;1698826;83;21576;-65
2022/02/03 08:21:05;;;;;;;13.15;6.83;;;;;;;1.39;97.04;99482.53;1697272;83;21130;-65
2022/02/03 08:26:13;;;;;;;14.45;5.70;;;;;;;1.50;96.31;99476.80;1702393;82;21124;-65
2022/02/03 08:31:10;;;;;;;15.48;6.87;;;;;;;1.63;96.58;99477.48;1696924;83;21020;-66
2022/02/03 08:33:35;;;;;;;14.20;7.72;;;;;;;1.72;96.55;99473.91;1676229;83;21487;-65
2022/02/03 08:36:07;;;;;;;12.63;6.35;;;;;;;1.77;96.71;99467.82;1699012;82;21029;-65
2022/02/03 08:38:50;;;;;;;13.32;6.05;;;;;;;1.80;96.51;99469.50;1695939;82;20984;-65
2022/02/03 08:41:16;;;;;;;10.82;5.80;;;;;;;1.95;96.74;99461.52;1703430;82;21038;-66
2022/02/03 08:43:43;;;;;;;10.80;5.67;;;;;;;2.20;96.73;99464.97;1700816;83;21040;-65
2022/02/03 08:46:15;;;;;;;15.05;7.42;;;;;;;2.42;96.54;99466.73;1731263;82;21657;-65
2022/02/03 08:48:43;;;;;;;15.60;7.95;;;;;;;2.51;96.18;99467.00;1712479;82;21099;-64
2022/02/03 08:51:13;;;;;;;14.73;7.60;;;;;;;2.46;95.76;99453.77;1713672;82;21134;-65
2022/02/03 08:53:43;;;;;;;10.45;5.70;;;;;;;2.47;95.67;99455.91;1685884;82;21071;-64
2022/02/03 08:56:37;;;;;;;11.20;5.78;;;;;;;2.46;95.78;99460.22;1716460;82;21009;-64
2022/02/03 09:35:28;;;;;;;16.20;10.08;;;;;;;3.98;94.17;99448.34;1712577;82;20941;-65
2022/02/03 09:40:32;;;;;;;17.50;8.93;;;;;;;3.94;94.19;99448.00;1726198;81;21067;-65
2022/02/03 09:56:34;;;;;;;16.67;8.80;;;;;;;3.50;93.54;99424.08;1745621;80;21016;-64
2022/02/03 09:59:04;;;;;;;;;;;;;;;3.42;93.99;99429.86;1712717;82;21043;-65
2022/02/03 10:01:16;;;;;;;13.15;7.97;;;;;;;3.49;94.58;99422.39;1679965;83;20169;-65
2022/02/03 10:06:25;;;;;;;12.75;8.08;;;;;;;3.70;94.88;99432.23;1710933;82;21746;-67
2022/02/03 10:08:54;;;;;;;12.88;7.45;;;;;;;3.71;94.66;99433.91;1744944;81;21234;-66
2022/02/03 10:11:29;;;;;;;11.83;6.40;;;;;;;3.71;94.25;99421.00;1744817;81;21004;-67
2022/02/03 10:14:03;;;;;;;10.18;6.35;;;;;;;3.59;93.87;99421.31;1711043;82;20966;-65
2022/02/03 10:16:40;;;;;;;13.38;6.95;;;;;;;3.51;94.09;99416.77;1743730;81;21553;-65
2022/02/03 10:19:20;;;;;;;8.88;6.28;;;;;;;3.36;93.99;99412.78;1744898;80;21122;-64
2022/02/03 10:21:47;;;;;;;14.90;10.30;;;;;;;3.45;94.57;99413.04;1710298;82;20929;-66
2022/02/03 10:24:16;;;;;;;9.20;6.67;;;;;;;3.49;94.48;99405.62;1711876;82;21574;-66
2022/02/03 10:26:50;;;;;;;10.48;7.33;;;;;;;3.52;94.50;99405.55;1745935;80;21493;-66
2022/02/03 10:29:31;;;;;;;15.80;10.08;;;;;;;3.55;94.31;99401.59;1711564;83;21005;-66
2022/02/03 10:31:56;;;;;;;15.95;9.58;;;;;;;3.59;94.42;99392.45;1714796;82;21180;-66
2022/02/03 10:34:28;;;;;;;13.75;7.72;;;;;;;3.66;94.53;99391.02;1711711;82;20960;-66
2022/02/03 10:37:25;;;;;;;11.57;7.78;;;;;;;3.73;94.25;99396.00;1742371;80;21723;-65
2022/02/03 10:45:25;;;;;;;30.15;15.23;;;;;;;3.81;94.19;99397.95;1714479;82;21918;-65
2022/02/03 10:51:19;;;;;;;21.15;10.63;;;;;;;3.91;94.23;99401.59;1742150;81;21053;-65
2022/02/03 10:53:32;;;;;;;15.00;9.38;;;;;;;3.84;94.20;99402.61;1711292;81;21084;-66
2022/02/03 10:55:55;;;;;;;11.90;8.40;;;;;;;3.81;94.13;99401.83;1738751;80;21044;-66
2022/02/03 10:58:25;;;;;;;13.83;8.70;;;;;;;3.70;93.88;99401.24;1709296;82;21278;-65
2022/02/03 11:06:31;;;;;;;30.23;14.68;;;;;;;3.52;94.18;99394.77;1741821;81;20174;-66
2022/02/03 11:09:13;;;;;;;18.00;11.33;;;;;;;3.59;94.97;99392.91;1740142;82;21537;-66
2022/02/03 11:11:40;;;;;;;19.55;11.43;;;;;;;3.65;94.82;99396.63;1679965;83;21069;-65
2022/02/03 11:14:06;;;;;;;13.10;10.07;;;;;;;3.65;94.57;99385.01;1716144;82;21062;-65
2022/02/03 11:16:39;;;;;;;11.30;7.65;;;;;;;3.68;94.81;99384.93;1711658;82;28032;-66
2022/02/03 11:19:12;;;;;;;11.97;9.58;;;;;;;3.64;94.55;99385.91;1711338;83;21071;-66
2022/02/03 11:21:37;;;;;;;15.38;8.80;;;;;;;3.68;94.81;99387.52;1744047;80;21023;-66
2022/02/03 11:24:16;;;;;;;15.23;10.53;;;;;;;3.63;94.64;99389.35;1713602;82;21473;-65
2022/02/03 11:26:52;;;;;;;30.40;20.02;;;;;;;3.57;94.42;99386.92;1743837;80;21802;-65
2022/02/03 11:29:51;;;;;;;20.17;12.45;;;;;;;3.60;94.65;99388.14;1740871;81;20996;-66
2022/02/03 11:46:20;;;;;;;15.45;11.20;;;;;;;3.89;94.58;99377.52;1741269;81;21114;-66
2022/02/03 12:12:05;;;;;;;24.90;15.55;;;;;;;3.70;94.75;99390.07;1716734;81;21005;-64
2022/02/03 12:14:34;;;;;;;30.17;18.30;;;;;;;3.83;95.29;99382.84;1743566;81;21055;-65
2022/02/03 12:19:40;;;;;;;21.02;11.85;;;;;;;3.80;94.98;99388.48;1742643;81;22068;-66
2022/02/03 12:22:35;;;;;;;34.03;21.15;;;;;;;3.73;94.91;99385.67;1739822;81;21826;-65
2022/02/03 12:25:09;;;;;;;26.52;18.17;;;;;;;3.68;95.20;99382.34;1739199;81;21085;-65
2022/02/03 12:27:53;;;;;;;24.70;14.70;;;;;;;3.71;95.63;99386.14;1740769;81;21079;-65
2022/02/03 12:30:18;;;;;;;19.67;13.10;;;;;;;3.72;95.53;99378.79;1739742;81;21004;-65
2022/02/03 12:42:56;;;;;;;21.77;13.18;;;;;;;3.68;95.38;99379.77;1687132;84;21017;-65
2022/02/03 12:45:27;;;;;;;23.73;13.55;;;;;;;3.63;95.01;99380.31;1712998;82;21927;-66
2022/02/03 12:48:01;;;;;;;19.23;12.70;;;;;;;3.61;94.80;99375.63;1710173;83;21071;-65
2022/02/03 12:52:46;;;;;;;25.17;16.50;;;;;;;3.72;95.19;99364.59;1777824;77;28087;-63
2022/02/03 12:55:27;;;;;;;22.27;14.73;;;;;;;3.84;95.62;99371.62;1771095;80;21001;-63
2022/02/03 12:57:57;;;;;;;20.15;13.90;;;;;;;3.95;95.27;99369.61;1772758;80;21057;-64
2022/02/03 13:00:33;;;;;;;27.40;14.30;;;;;;;3.88;94.41;99362.92;1762755;80;21039;-64
2022/02/03 13:03:03;;;;;;;22.85;15.25;;;;;;;3.76;94.63;99364.93;1765481;80;20915;-65
2022/02/03 13:05:36;;;;;;;29.40;15.32;;;;;;;3.83;95.04;99372.52;1771787;79;20990;-64
2022/02/03 13:08:04;;;;;;;21.97;14.40;;;;;;;3.71;95.29;99364.20;1763757;79;20942;-64
2022/02/03 13:10:35;;;;;;;24.12;14.95;;;;;;;3.75;95.31;99368.41;1761539;79;21227;-64
2022/02/03 13:13:36;;;;;;;26.70;14.20;;;;;;;3.72;95.52;99365.03;1778025;79;20982;-64
2022/02/03 13:15:53;;;;;;;26.95;15.23;;;;;;;3.84;95.42;99358.70;1771104;80;21001;-65
2022/02/03 13:18:33;;;;;;;28.25;14.35;;;;;;;3.85;94.95;99349.64;1770339;80;21005;-65
2022/02/03 13:21:04;;;;;;;27.50;14.80;;;;;;;3.87;95.06;99358.66;1768440;80;21689;-64
2022/02/03 13:23:28;;;;;;;29.92;15.58;;;;;;;3.82;94.83;99351.02;1767206;80;21571;-65
2022/02/03 13:26:12;;;;;;;36.13;18.37;;;;;;;3.72;94.59;99355.55;1775315;79;21029;-64
2022/02/03 13:28:50;;;;;;;33.42;17.80;;;;;;;3.68;94.86;99353.10;1778123;80;20881;-64
2022/02/03 13:31:29;;;;;;;30.10;15.45;;;;;;;3.63;94.92;99346.75;1769413;80;21018;-64
2022/02/03 13:34:04;;;;;;;27.25;15.63;;;;;;;3.57;94.77;99345.63;1775554;80;21052;-64
2022/02/03 13:36:30;;;;;;;39.88;21.12;;;;;;;3.57;95.01;99343.04;1770370;80;21951;-64
2022/02/03 13:39:43;;;;;;;43.40;22.13;;;;;;;3.59;95.11;99341.27;1778205;80;20942;-64
2022/02/03 13:41:36;;;;;;;34.25;18.15;;;;;;;3.53;94.82;99333.69;1748626;80;21603;-64
2022/02/03 13:44:11;;;;;;;29.18;14.98;;;;;;;3.56;95.15;99339.62;1765963;79;21589;-64
2022/02/03 13:46:43;;;;;;;23.38;12.68;;;;;;;3.53;94.91;99344.02;1769040;80;20947;-65
2022/02/03 13:49:17;;;;;;;28.70;13.15;;;;;;;3.50;94.97;99337.61;1768551;80;21058;-65
2022/02/03 13:51:47;;;;;;;21.73;12.33;;;;;;;3.45;94.94;99338.19;1768579;79;20954;-65
2022/02/03 14:22:40;;;;;;;29.27;16.32;;;;;;;2.72;95.52;99348.02;1705346;83;21036;-64
2022/02/03 14:27:43;;;;;;;25.15;16.10;;;;;;;2.62;96.01;99349.08;1708049;83;21052;-64
2022/02/03 14:30:16;;;;;;;24.20;13.50;;;;;;;2.52;96.10;99349.72;1703888;82;21625;-64
2022/02/03 14:32:42;;;;;;;25.88;13.90;;;;;;;2.48;96.22;99347.23;1706264;81;21676;-64
2022/02/03 14:35:11;;;;;;;24.47;14.33;;;;;;;2.43;96.27;99341.71;1679384;83;21627;-65
2022/02/03 14:42:40;;;;;;;22.98;14.00;;;;;;;2.30;95.92;99336.41;1698547;82;21043;-64
2022/02/03 14:45:10;;;;;;;22.27;15.28;;;;;;;2.22;96.02;99335.27;1703781;83;21150;-64
2022/02/03 14:47:36;;;;;;;29.85;14.73;;;;;;;2.26;95.94;99330.90;1699606;82;21052;-64
2022/02/03 14:50:05;;;;;;;23.12;15.28;;;;;;;2.24;95.91;99337.39;1666158;84;21010;-63
2022/02/03 14:52:44;;;;;;;23.60;14.55;;;;;;;2.21;95.94;99334.88;1673639;84;21036;-64
2022/02/03 14:58:11;;;;;;;27.90;14.25;;;;;;;2.12;95.76;99332.89;1683252;82;20997;-63
2022/02/03 15:00:34;;;;;;;27.30;15.88;;;;;;;2.09;95.88;99333.80;1706869;82;20966;-63
2022/02/03 15:03:01;;;;;;;;;;;;;;;2.04;95.96;99328.33;1732607;82;20998;-64
2022/02/03 15:05:31;;;;;;;28.32;16.23;;;;;;;1.99;95.90;99326.70;1733247;82;20092;-63
2022/02/03 15:08:02;;;;;;;30.23;17.07;;;;;;;1.92;95.85;99319.95;1698845;83;21101;-65
2022/02/03 15:13:15;;;;;;;26.62;16.65;;;;;;;1.82;95.91;99321.02;1732413;82;21041;-63
2022/02/03 15:15:39;;;;;;;30.17;14.87;;;;;;;1.79;95.98;99321.05;1731945;82;21034;-64
2022/02/03 15:18:05;;;;;;;21.82;14.50;;;;;;;1.76;96.08;99318.53;1732042;81;20993;-63
2022/02/03 15:20:32;;;;;;;24.23;14.53;;;;;;;1.71;95.98;99320.33;1732869;81;22354;-63
2022/02/03 15:23:00;;;;;;;28.25;17.40;;;;;;;1.68;96.07;99317.81;1732249;81;20927;-63
2022/02/03 15:25:27;;;;;;;34.43;17.37;;;;;;;1.65;96.10;99315.30;1733605;81;20958;-63
2022/02/03 15:27:55;;;;;;;35.78;20.35;;;;;;;1.59;96.11;99305.96;1728793;81;21080;-63
2022/02/03 15:30:21;;;;;;;;;;;;;;;1.46;96.50;99300.20;1733670;81;21092;-63
2022/02/03 15:32:49;;;;;;;33.45;17.73;;;;;;;1.47;96.90;99301.04;1732592;81;22268;-63
2022/02/03 15:35:24;;;;;;;25.05;15.13;;;;;;;1.48;97.13;99299.71;1733627;81;20958;-63
2022/02/03 15:37:47;;;;;;;24.77;15.40;;;;;;;1.44;96.99;99294.22;1731468;81;20978;-63
2022/02/03 15:40:20;;;;;;;31.37;18.00;;;;;;;1.42;96.88;99293.39;1737123;81;20958;-63
2022/02/03 15:42:54;;;;;;;28.27;17.10;;;;;;;1.36;96.78;99293.50;1727980;81;21097;-63
2022/02/03 15:45:13;;;;;;;29.05;16.48;;;;;;;1.34;96.88;99287.52;1730990;81;21088;-63
2022/02/03 15:47:46;;;;;;;31.42;16.48;;;;;;;1.33;96.91;99288.41;1700192;82;26449;-63
2022/02/03 15:50:53;;;;;;;26.70;16.65;;;;;;;1.30;96.98;99283.32;1734101;82;21060;-63
2022/02/03 16:01:35;;;;;;;23.32;15.88;;;;;;;1.18;96.88;99273.25;1717587;83;20931;-65
2022/02/03 16:04:19;;;;;;;27.25;16.62;;;;;;;1.15;97.04;99267.72;1714247;83;20958;-64
2022/02/03 16:17:39;;;;;;;24.02;14.70;;;;;;;1.06;96.75;99257.11;1731440;81;21011;-64
2022/02/03 16:20:25;;;;;;;25.32;13.95;;;;;;;1.05;96.73;99246.42;1720628;81;21576;-64
2022/02/03 16:22:55;;;;;;;29.10;14.47;;;;;;;1.04;96.80;99243.45;1723353;82;20993;-63
2022/02/03 16:42:47;;;;;;;30.77;18.77;;;;;;;0.97;97.11;99239.72;1710625;83;21001;-64
2022/02/03 16:52:39;;;;;;;25.10;14.78;;;;;;;0.89;97.43;99234.69;1715100;81;20951;-63
2022/02/03 16:55:12;;;;;;;25.37;16.42;;;;;;;0.90;97.48;99235.12;1738661;81;20962;-62
2022/02/03 16:57:37;;;;;;;22.45;13.93;;;;;;;0.90;97.51;99231.27;1720306;82;21100;-62
2022/02/03 17:00:15;;;;;;;25.57;16.10;;;;;;;0.91;97.49;99226.52;1713220;81;20956;-62
2022/02/03 17:02:42;;;;;;;22.95;15.25;;;;;;;0.93;97.48;99231.66;1715831;82;21609;-63
2022/02/03 17:05:10;;;;;;;28.70;15.53;;;;;;;0.94;97.43;99223.90;1727416;82;20994;-63
2022/02/03 17:07:38;;;;;;;22.75;16.45;;;;;;;0.91;97.46;99221.38;1713692;82;21006;-63
2022/02/03 17:10:08;;;;;;;49.13;30.90;;;;;;;0.94;97.56;99223.90;1725831;82;20992;-63
2022/02/03 17:12:36;;;;;;;35.20;22.65;;;;;;;0.94;97.51;99220.05;1679643;83;21015;-63
2022/02/03 17:15:07;;;;;;;38.00;22.58;;;;;;;0.94;97.53;99223.90;1727354;81;21010;-64
2022/02/03 17:17:35;;;;;;;34.43;22.15;;;;;;;0.94;97.53;99207.19;1685016;82;21108;-63
2022/02/03 17:20:03;;;;;;;32.35;20.90;;;;;;;0.91;97.57;99208.53;1702615;82;21626;-64
2022/02/03 17:22:36;;;;;;;32.30;21.27;;;;;;;0.90;97.57;99206.84;1724668;82;21113;-64
2022/02/03 17:30:13;;;;;;;42.27;25.40;;;;;;;0.84;97.69;99204.34;1719155;81;21037;-63
2022/02/03 18:02:53;;;;;;;31.57;19.45;;;;;;;0.78;98.05;99181.33;1704172;83;21080;-64
2022/02/03 18:06:09;;;;;;;25.20;18.20;;;;;;;0.80;98.34;99176.57;1702858;83;21374;-64
2022/02/03 18:46:41;;;;;;;18.37;12.20;;;;;;;0.86;98.32;99151.20;1660423;86;21067;-64
2022/02/03 18:59:21;;;;;;;16.30;10.72;;;;;;;0.86;98.28;99137.07;1656212;86;21061;-63
2022/02/03 19:01:51;;;;;;;15.53;10.08;;;;;;;0.86;98.32;99135.78;1634918;85;21177;-63
2022/02/03 19:23:19;;;;;;;15.08;8.25;;;;;;;0.87;98.61;99137.50;1668010;85;22271;-64
2022/02/03 20:08:57;;;;;;;13.48;7.05;;;;;;;0.97;98.83;99082.46;1786318;80;21598;-63
2022/02/03 20:11:18;;;;;;;14.20;7.08;;;;;;;0.98;98.86;99085.87;1783751;79;21654;-63
2022/02/03 20:13:50;;;;;;;12.10;7.22;;;;;;;0.97;98.93;99082.46;1779962;80;20946;-63
2022/02/03 20:16:19;;;;;;;;;;;;;;;0.99;98.99;99076.86;1784764;80;21520;-63
2022/02/03 20:18:46;;;;;;;37.75;26.90;;;;;;;0.98;98.93;99081.61;1786250;80;20184;-63
2022/02/03 20:21:13;;;;;;;35.95;23.18;;;;;;;0.99;98.98;99079.43;1775365;80;21676;-62
2022/02/03 20:23:44;;;;;;;18.12;12.18;;;;;;;1.00;98.93;99082.41;1770725;80;21006;-63
2022/02/03 20:26:17;;;;;;;19.37;13.85;;;;;;;1.00;98.95;99070.83;1772830;80;21028;-63
2022/02/03 20:28:47;;;;;;;24.80;14.87;;;;;;;0.98;99.08;99067.47;1781657;79;21961;-63
2022/02/03 20:31:14;;;;;;;33.48;23.67;;;;;;;0.97;99.12;99059.33;1766217;79;21065;-63
2022/02/03 20:33:40;;;;;;;40.05;28.75;;;;;;;0.97;99.12;99056.75;1773831;80;20981;-63
2022/02/03 20:36:09;;;;;;;74.77;52.07;;;;;;;0.95;99.18;99043.08;1775461;78;21086;-63
2022/02/03 20:38:36;;;;;;;53.10;37.98;;;;;;;0.98;99.20;99053.33;1771765;78;20984;-63
2022/02/03 20:41:04;;;;;;;22.35;15.65;;;;;;;0.95;99.32;99040.51;1773674;79;22283;-63
2022/02/03 20:43:31;;;;;;;27.00;18.40;;;;;;;0.97;99.42;99038.77;1771995;80;20911;-63
2022/02/03 20:45:58;;;;;;;65.83;44.73;;;;;;;0.97;99.46;99031.05;1770350;80;20949;-63
2022/02/03 20:48:25;;;;;;;59.42;36.13;;;;;;;1.00;99.33;99029.70;1766564;80;21017;-63
2022/02/03 20:50:52;;;;;;;148.65;88.37;;;;;;;1.01;99.22;99030.12;1776891;80;20977;-63
2022/02/03 20:53:18;;;;;;;54.18;32.88;;;;;;;1.02;99.16;99030.53;1718042;81;21172;-64
2022/02/03 20:55:47;;;;;;;100.00;46.80;;;;;;;1.05;99.21;99025.33;1754438;81;20985;-63
2022/02/03 20:58:20;;;;;;;217.85;115.30;;;;;;;1.05;99.20;99020.18;1745642;81;22096;-63
2022/02/03 21:01:07;;;;;;;250.93;134.03;;;;;;;1.06;99.16;99015.44;1748371;81;22411;-63
2022/02/03 21:03:38;;;;;;;234.77;127.70;;;;;;;1.05;99.16;99011.18;1744873;81;20986;-63
2022/02/03 21:05:56;;;;;;;254.10;139.43;;;;;;;1.06;99.19;99003.02;1751860;81;21482;-63
2022/02/03 21:08:30;;;;;;;250.70;141.30;;;;;;;1.09;99.27;99001.27;1740376;80;21638;-63
2022/02/03 21:10:52;;;;;;;279.00;162.70;;;;;;;1.10;99.25;98998.24;1746872;81;21523;-63
2022/02/03 21:13:19;;;;;;;134.87;80.05;;;;;;;1.11;99.27;99004.63;1706953;82;21042;-63
2022/02/03 21:15:46;;;;;;;65.03;42.15;;;;;;;1.14;99.36;98996.45;1725335;83;26849;-63
2022/02/03 21:18:15;;;;;;;67.62;52.23;;;;;;;1.15;99.35;98995.56;1727261;83;21599;-63
2022/02/03 21:20:42;;;;;;;22.22;15.18;;;;;;;1.17;99.40;99001.52;1726487;83;20990;-63
2022/02/03 21:23:11;;;;;;;15.28;10.63;;;;;;;1.20;99.42;98995.87;1722520;82;20986;-64
2022/02/03 21:25:46;;;;;;;27.93;17.23;;;;;;;1.23;99.39;98992.39;1721329;83;20974;-64
2022/02/03 21:28:22;;;;;;;16.52;11.55;;;;;;;1.23;99.36;98993.67;1721043;83;20995;-64
2022/02/03 21:30:51;;;;;;;15.50;10.63;;;;;;;1.24;99.36;98995.39;1726061;83;21146;-64
2022/02/03 21:33:27;;;;;;;11.88;8.80;;;;;;;1.22;99.46;98986.85;1727606;83;21035;-63